sensor_id;sensor_type;location;lat;lon;timestamp;P1;durP1;ratioP1;P2;durP2;ratioP2
25731;SDS011;13585;50.864;4.406;2023-03-03T00:01:16;8.68;;;5.78;;
25731;SDS011;13585;50.864;4.406;2023-03-03T00:03:42;7.80;;;5.22;;
25731;SDS011;13585;50.864;4.406;2023-03-03T00:06:09;9.82;;;6.10;;
25731;SDS011;13585;50.864;4.406;2023-03-03T00:08:40;8.20;;;5.50;;
25731;SDS011;13585;50.864;4.406;2023-03-03T00:11:05;7.50;;;5.85;;
25731;SDS011;13585;50.864;4.406;2023-03-03T00:13:32;8.98;;;5.60;;
25731;SDS011;13585;50.864;4.406;2023-03-03T00:16:18;7.80;;;6.03;;
25731;SDS011;13585;50.864;4.406;2023-03-03T00:18:50;7.95;;;5.65;;
25731;SDS011;13585;50.864;4.406;2023-03-03T00:27:00;7.70;;;5.43;;
25731;SDS011;13585;50.864;4.406;2023-03-03T00:29:36;7.38;;;5.35;;
25731;SDS011;13585;50.864;4.406;2023-03-03T00:34:41;7.55;;;5.95;;
25731;SDS011;13585;50.864;4.406;2023-03-03T00:42:40;7.82;;;5.47;;
25731;SDS011;13585;50.864;4.406;2023-03-03T00:45:16;6.85;;;5.20;;
25731;SDS011;13585;50.864;4.406;2023-03-03T00:50:48;6.82;;;5.60;;
25731;SDS011;13585;50.864;4.406;2023-03-03T00:53:18;8.82;;;5.95;;
25731;SDS011;13585;50.864;4.406;2023-03-03T00:55:45;7.32;;;5.50;;
25731;SDS011;13585;50.864;4.406;2023-03-03T00:58:12;8.02;;;5.97;;
25731;SDS011;13585;50.864;4.406;2023-03-03T01:00:38;8.35;;;6.18;;
25731;SDS011;13585;50.864;4.406;2023-03-03T01:03:08;6.90;;;5.43;;
25731;SDS011;13585;50.864;4.406;2023-03-03T01:05:37;8.00;;;5.78;;
25731;SDS011;13585;50.864;4.406;2023-03-03T01:08:03;7.57;;;5.72;;
25731;SDS011;13585;50.864;4.406;2023-03-03T01:10:33;7.35;;;5.80;;
25731;SDS011;13585;50.864;4.406;2023-03-03T01:13:05;7.72;;;5.97;;
25731;SDS011;13585;50.864;4.406;2023-03-03T01:15:31;7.90;;;5.80;;
25731;SDS011;13585;50.864;4.406;2023-03-03T01:17:57;7.55;;;5.88;;
25731;SDS011;13585;50.864;4.406;2023-03-03T01:20:23;7.80;;;5.80;;
25731;SDS011;13585;50.864;4.406;2023-03-03T01:22:48;8.13;;;6.07;;
25731;SDS011;13585;50.864;4.406;2023-03-03T01:25:14;8.63;;;6.32;;
25731;SDS011;13585;50.864;4.406;2023-03-03T01:27:40;8.65;;;5.95;;
25731;SDS011;13585;50.864;4.406;2023-03-03T01:30:06;8.20;;;5.78;;
25731;SDS011;13585;50.864;4.406;2023-03-03T01:32:32;8.13;;;5.97;;
25731;SDS011;13585;50.864;4.406;2023-03-03T01:34:58;7.95;;;5.75;;
25731;SDS011;13585;50.864;4.406;2023-03-03T01:37:24;7.55;;;5.88;;
25731;SDS011;13585;50.864;4.406;2023-03-03T01:39:50;8.43;;;6.05;;
25731;SDS011;13585;50.864;4.406;2023-03-03T01:42:17;7.68;;;5.82;;
25731;SDS011;13585;50.864;4.406;2023-03-03T01:44:43;9.90;;;6.22;;
25731;SDS011;13585;50.864;4.406;2023-03-03T01:49:59;8.27;;;5.90;;
25731;SDS011;13585;50.864;4.406;2023-03-03T01:55:01;8.40;;;6.17;;
25731;SDS011;13585;50.864;4.406;2023-03-03T01:57:48;8.35;;;5.97;;
25731;SDS011;13585;50.864;4.406;2023-03-03T02:00:20;9.15;;;5.85;;
25731;SDS011;13585;50.864;4.406;2023-03-03T02:02:46;9.23;;;5.88;;
25731;SDS011;13585;50.864;4.406;2023-03-03T02:05:12;8.30;;;5.93;;
25731;SDS011;13585;50.864;4.406;2023-03-03T02:07:40;8.68;;;5.85;;
25731;SDS011;13585;50.864;4.406;2023-03-03T02:10:13;10.85;;;6.18;;
25731;SDS011;13585;50.864;4.406;2023-03-03T02:12:42;8.63;;;6.40;;
25731;SDS011;13585;50.864;4.406;2023-03-03T02:17:42;7.45;;;5.63;;
25731;SDS011;13585;50.864;4.406;2023-03-03T02:22:46;8.20;;;5.90;;
25731;SDS011;13585;50.864;4.406;2023-03-03T02:25:18;8.30;;;6.13;;
25731;SDS011;13585;50.864;4.406;2023-03-03T02:27:52;8.70;;;6.13;;
25731;SDS011;13585;50.864;4.406;2023-03-03T02:30:20;8.15;;;6.28;;
25731;SDS011;13585;50.864;4.406;2023-03-03T02:32:46;8.57;;;5.88;;
25731;SDS011;13585;50.864;4.406;2023-03-03T02:35:24;7.65;;;6.00;;
25731;SDS011;13585;50.864;4.406;2023-03-03T02:37:54;7.68;;;5.90;;
25731;SDS011;13585;50.864;4.406;2023-03-03T02:40:23;7.32;;;5.78;;
25731;SDS011;13585;50.864;4.406;2023-03-03T02:42:52;8.40;;;6.18;;
25731;SDS011;13585;50.864;4.406;2023-03-03T02:45:21;7.18;;;5.50;;
25731;SDS011;13585;50.864;4.406;2023-03-03T02:47:50;8.50;;;5.90;;
25731;SDS011;13585;50.864;4.406;2023-03-03T02:50:16;8.68;;;6.10;;
25731;SDS011;13585;50.864;4.406;2023-03-03T02:52:41;8.20;;;5.95;;
25731;SDS011;13585;50.864;4.406;2023-03-03T02:55:07;8.60;;;6.50;;
25731;SDS011;13585;50.864;4.406;2023-03-03T02:57:33;7.93;;;5.90;;
25731;SDS011;13585;50.864;4.406;2023-03-03T02:59:59;7.68;;;5.82;;
25731;SDS011;13585;50.864;4.406;2023-03-03T03:02:24;9.55;;;6.55;;
25731;SDS011;13585;50.864;4.406;2023-03-03T03:04:51;8.23;;;6.30;;
25731;SDS011;13585;50.864;4.406;2023-03-03T03:07:16;8.30;;;6.22;;
25731;SDS011;13585;50.864;4.406;2023-03-03T03:09:42;8.82;;;6.55;;
25731;SDS011;13585;50.864;4.406;2023-03-03T03:12:08;8.50;;;5.95;;
25731;SDS011;13585;50.864;4.406;2023-03-03T03:14:34;8.27;;;6.18;;
25731;SDS011;13585;50.864;4.406;2023-03-03T03:16:59;8.73;;;6.32;;
25731;SDS011;13585;50.864;4.406;2023-03-03T03:19:25;11.18;;;6.57;;
25731;SDS011;13585;50.864;4.406;2023-03-03T03:21:54;8.63;;;6.15;;
25731;SDS011;13585;50.864;4.406;2023-03-03T03:24:20;7.85;;;6.10;;
25731;SDS011;13585;50.864;4.406;2023-03-03T03:26:46;9.25;;;6.47;;
25731;SDS011;13585;50.864;4.406;2023-03-03T03:29:11;9.00;;;6.70;;
25731;SDS011;13585;50.864;4.406;2023-03-03T03:31:37;9.73;;;6.75;;
25731;SDS011;13585;50.864;4.406;2023-03-03T03:34:03;8.75;;;6.60;;
25731;SDS011;13585;50.864;4.406;2023-03-03T03:36:28;8.32;;;5.95;;
25731;SDS011;13585;50.864;4.406;2023-03-03T03:38:54;8.32;;;6.38;;
25731;SDS011;13585;50.864;4.406;2023-03-03T03:41:20;10.75;;;6.68;;
25731;SDS011;13585;50.864;4.406;2023-03-03T03:43:45;8.52;;;6.22;;
25731;SDS011;13585;50.864;4.406;2023-03-03T03:46:11;8.57;;;6.45;;
25731;SDS011;13585;50.864;4.406;2023-03-03T03:48:37;9.38;;;6.95;;
25731;SDS011;13585;50.864;4.406;2023-03-03T03:51:02;8.20;;;6.20;;
25731;SDS011;13585;50.864;4.406;2023-03-03T03:53:28;9.80;;;7.00;;
25731;SDS011;13585;50.864;4.406;2023-03-03T03:55:54;9.02;;;6.43;;
25731;SDS011;13585;50.864;4.406;2023-03-03T03:58:20;9.40;;;6.78;;
25731;SDS011;13585;50.864;4.406;2023-03-03T04:00:46;8.98;;;6.68;;
25731;SDS011;13585;50.864;4.406;2023-03-03T04:03:12;9.18;;;6.80;;
25731;SDS011;13585;50.864;4.406;2023-03-03T04:05:40;8.80;;;6.82;;
25731;SDS011;13585;50.864;4.406;2023-03-03T04:08:06;9.95;;;6.95;;
25731;SDS011;13585;50.864;4.406;2023-03-03T04:10:32;9.30;;;6.65;;
25731;SDS011;13585;50.864;4.406;2023-03-03T04:12:58;8.50;;;6.60;;
25731;SDS011;13585;50.864;4.406;2023-03-03T04:15:24;9.02;;;6.60;;
25731;SDS011;13585;50.864;4.406;2023-03-03T04:17:49;9.23;;;7.03;;
25731;SDS011;13585;50.864;4.406;2023-03-03T04:20:15;9.38;;;7.00;;
25731;SDS011;13585;50.864;4.406;2023-03-03T04:22:41;10.00;;;7.05;;
25731;SDS011;13585;50.864;4.406;2023-03-03T04:25:07;9.10;;;7.05;;
25731;SDS011;13585;50.864;4.406;2023-03-03T04:27:36;8.45;;;6.30;;
25731;SDS011;13585;50.864;4.406;2023-03-03T04:30:02;8.85;;;6.78;;
25731;SDS011;13585;50.864;4.406;2023-03-03T04:32:29;9.82;;;7.13;;
25731;SDS011;13585;50.864;4.406;2023-03-03T04:34:57;10.50;;;7.43;;
25731;SDS011;13585;50.864;4.406;2023-03-03T04:37:23;10.07;;;7.22;;
25731;SDS011;13585;50.864;4.406;2023-03-03T04:39:49;10.27;;;7.13;;
25731;SDS011;13585;50.864;4.406;2023-03-03T04:42:14;9.20;;;6.70;;
25731;SDS011;13585;50.864;4.406;2023-03-03T04:44:40;8.95;;;6.70;;
25731;SDS011;13585;50.864;4.406;2023-03-03T04:47:06;9.88;;;7.15;;
25731;SDS011;13585;50.864;4.406;2023-03-03T04:49:31;8.93;;;6.63;;
25731;SDS011;13585;50.864;4.406;2023-03-03T04:51:57;9.80;;;6.93;;
25731;SDS011;13585;50.864;4.406;2023-03-03T04:54:23;9.63;;;7.13;;
25731;SDS011;13585;50.864;4.406;2023-03-03T04:56:49;9.02;;;6.50;;
25731;SDS011;13585;50.864;4.406;2023-03-03T04:59:15;10.30;;;6.80;;
25731;SDS011;13585;50.864;4.406;2023-03-03T05:01:40;9.13;;;6.72;;
25731;SDS011;13585;50.864;4.406;2023-03-03T05:04:06;10.65;;;7.38;;
25731;SDS011;13585;50.864;4.406;2023-03-03T05:06:32;9.98;;;7.35;;
25731;SDS011;13585;50.864;4.406;2023-03-03T05:08:57;9.63;;;6.43;;
25731;SDS011;13585;50.864;4.406;2023-03-03T05:11:23;9.50;;;6.82;;
25731;SDS011;13585;50.864;4.406;2023-03-03T05:13:49;10.05;;;7.22;;
25731;SDS011;13585;50.864;4.406;2023-03-03T05:16:14;9.82;;;7.20;;
25731;SDS011;13585;50.864;4.406;2023-03-03T05:18:40;10.45;;;7.28;;
25731;SDS011;13585;50.864;4.406;2023-03-03T05:21:06;9.77;;;7.00;;
25731;SDS011;13585;50.864;4.406;2023-03-03T05:23:31;9.13;;;6.88;;
25731;SDS011;13585;50.864;4.406;2023-03-03T05:25:57;9.10;;;6.57;;
25731;SDS011;13585;50.864;4.406;2023-03-03T05:28:23;10.63;;;7.40;;
25731;SDS011;13585;50.864;4.406;2023-03-03T05:30:48;9.50;;;7.20;;
25731;SDS011;13585;50.864;4.406;2023-03-03T05:33:15;10.10;;;7.55;;
25731;SDS011;13585;50.864;4.406;2023-03-03T05:35:41;10.32;;;7.05;;
25731;SDS011;13585;50.864;4.406;2023-03-03T05:38:07;11.73;;;7.97;;
25731;SDS011;13585;50.864;4.406;2023-03-03T05:40:32;10.77;;;7.53;;
25731;SDS011;13585;50.864;4.406;2023-03-03T05:42:58;12.38;;;7.80;;
25731;SDS011;13585;50.864;4.406;2023-03-03T05:45:24;9.98;;;7.15;;
25731;SDS011;13585;50.864;4.406;2023-03-03T05:47:50;9.98;;;7.53;;
25731;SDS011;13585;50.864;4.406;2023-03-03T05:50:16;9.32;;;6.78;;
25731;SDS011;13585;50.864;4.406;2023-03-03T05:52:43;8.52;;;6.55;;
25731;SDS011;13585;50.864;4.406;2023-03-03T05:55:11;8.13;;;6.40;;
25731;SDS011;13585;50.864;4.406;2023-03-03T05:57:37;10.23;;;6.78;;
25731;SDS011;13585;50.864;4.406;2023-03-03T06:00:03;10.65;;;6.97;;
25731;SDS011;13585;50.864;4.406;2023-03-03T06:02:30;8.05;;;5.93;;
25731;SDS011;13585;50.864;4.406;2023-03-03T06:04:55;8.48;;;6.43;;
25731;SDS011;13585;50.864;4.406;2023-03-03T06:07:21;9.60;;;6.50;;
25731;SDS011;13585;50.864;4.406;2023-03-03T06:09:47;8.38;;;6.43;;
25731;SDS011;13585;50.864;4.406;2023-03-03T06:12:12;9.80;;;6.30;;
25731;SDS011;13585;50.864;4.406;2023-03-03T06:14:38;8.60;;;6.38;;
25731;SDS011;13585;50.864;4.406;2023-03-03T06:17:03;8.05;;;6.38;;
25731;SDS011;13585;50.864;4.406;2023-03-03T06:19:30;8.32;;;6.65;;
25731;SDS011;13585;50.864;4.406;2023-03-03T06:21:56;8.65;;;6.45;;
25731;SDS011;13585;50.864;4.406;2023-03-03T06:24:21;8.18;;;5.57;;
25731;SDS011;13585;50.864;4.406;2023-03-03T06:26:49;7.07;;;5.35;;
25731;SDS011;13585;50.864;4.406;2023-03-03T06:29:15;7.47;;;5.75;;
25731;SDS011;13585;50.864;4.406;2023-03-03T06:31:41;7.63;;;5.68;;
25731;SDS011;13585;50.864;4.406;2023-03-03T06:34:07;7.97;;;5.82;;
25731;SDS011;13585;50.864;4.406;2023-03-03T06:36:33;8.90;;;5.85;;
25731;SDS011;13585;50.864;4.406;2023-03-03T06:38:58;8.68;;;6.30;;
25731;SDS011;13585;50.864;4.406;2023-03-03T06:41:25;8.48;;;5.50;;
25731;SDS011;13585;50.864;4.406;2023-03-03T06:43:50;9.98;;;6.13;;
25731;SDS011;13585;50.864;4.406;2023-03-03T06:46:16;8.38;;;5.57;;
25731;SDS011;13585;50.864;4.406;2023-03-03T06:48:42;7.38;;;5.43;;
25731;SDS011;13585;50.864;4.406;2023-03-03T06:51:41;8.98;;;4.95;;
25731;SDS011;13585;50.864;4.406;2023-03-03T06:54:05;9.27;;;6.72;;
25731;SDS011;13585;50.864;4.406;2023-03-03T06:56:37;9.52;;;5.68;;
25731;SDS011;13585;50.864;4.406;2023-03-03T06:59:16;10.82;;;6.05;;
25731;SDS011;13585;50.864;4.406;2023-03-03T07:01:43;8.75;;;5.80;;
25731;SDS011;13585;50.864;4.406;2023-03-03T07:04:31;7.10;;;5.20;;
25731;SDS011;13585;50.864;4.406;2023-03-03T07:06:59;9.50;;;5.68;;
25731;SDS011;13585;50.864;4.406;2023-03-03T07:09:32;9.18;;;5.82;;
25731;SDS011;13585;50.864;4.406;2023-03-03T07:12:11;7.60;;;5.38;;
25731;SDS011;13585;50.864;4.406;2023-03-03T07:17:13;8.90;;;5.72;;
25731;SDS011;13585;50.864;4.406;2023-03-03T07:19:41;8.32;;;5.35;;
25731;SDS011;13585;50.864;4.406;2023-03-03T07:22:12;8.05;;;5.35;;
25731;SDS011;13585;50.864;4.406;2023-03-03T07:24:47;7.88;;;5.90;;
25731;SDS011;13585;50.864;4.406;2023-03-03T07:27:26;8.38;;;5.18;;
25731;SDS011;13585;50.864;4.406;2023-03-03T07:30:16;9.48;;;5.78;;
25731;SDS011;13585;50.864;4.406;2023-03-03T07:32:47;6.47;;;5.30;;
25731;SDS011;13585;50.864;4.406;2023-03-03T07:35:26;7.32;;;5.35;;
25731;SDS011;13585;50.864;4.406;2023-03-03T07:40:38;9.00;;;5.50;;
25731;SDS011;13585;50.864;4.406;2023-03-03T07:45:45;7.20;;;5.47;;
25731;SDS011;13585;50.864;4.406;2023-03-03T07:50:49;8.00;;;5.20;;
25731;SDS011;13585;50.864;4.406;2023-03-03T07:53:24;8.13;;;5.65;;
25731;SDS011;13585;50.864;4.406;2023-03-03T07:55:52;7.88;;;5.32;;
25731;SDS011;13585;50.864;4.406;2023-03-03T07:58:35;7.07;;;5.28;;
25731;SDS011;13585;50.864;4.406;2023-03-03T08:03:59;7.43;;;5.45;;
25731;SDS011;13585;50.864;4.406;2023-03-03T08:11:34;6.40;;;4.95;;
25731;SDS011;13585;50.864;4.406;2023-03-03T08:14:14;7.72;;;5.60;;
25731;SDS011;13585;50.864;4.406;2023-03-03T08:16:41;6.57;;;5.10;;
25731;SDS011;13585;50.864;4.406;2023-03-03T08:19:08;6.43;;;5.20;;
25731;SDS011;13585;50.864;4.406;2023-03-03T08:21:36;7.50;;;5.70;;
25731;SDS011;13585;50.864;4.406;2023-03-03T08:24:02;6.60;;;5.22;;
25731;SDS011;13585;50.864;4.406;2023-03-03T08:26:27;7.60;;;5.40;;
25731;SDS011;13585;50.864;4.406;2023-03-03T08:28:53;7.07;;;5.60;;
25731;SDS011;13585;50.864;4.406;2023-03-03T08:31:19;6.93;;;5.30;;
25731;SDS011;13585;50.864;4.406;2023-03-03T08:33:46;7.85;;;5.60;;
25731;SDS011;13585;50.864;4.406;2023-03-03T08:36:11;7.00;;;5.38;;
25731;SDS011;13585;50.864;4.406;2023-03-03T08:38:37;7.53;;;5.57;;
25731;SDS011;13585;50.864;4.406;2023-03-03T08:41:04;7.22;;;5.10;;
25731;SDS011;13585;50.864;4.406;2023-03-03T08:43:30;7.93;;;5.07;;
25731;SDS011;13585;50.864;4.406;2023-03-03T08:45:57;8.63;;;5.95;;
25731;SDS011;13585;50.864;4.406;2023-03-03T08:48:24;8.60;;;5.47;;
25731;SDS011;13585;50.864;4.406;2023-03-03T08:50:51;7.68;;;5.63;;
25731;SDS011;13585;50.864;4.406;2023-03-03T08:53:18;6.85;;;5.43;;
25731;SDS011;13585;50.864;4.406;2023-03-03T08:55:44;7.35;;;5.35;;
25731;SDS011;13585;50.864;4.406;2023-03-03T08:58:10;7.10;;;5.47;;
25731;SDS011;13585;50.864;4.406;2023-03-03T09:00:36;8.40;;;5.88;;
25731;SDS011;13585;50.864;4.406;2023-03-03T09:03:02;7.68;;;5.43;;
25731;SDS011;13585;50.864;4.406;2023-03-03T09:05:31;10.00;;;7.05;;
25731;SDS011;13585;50.864;4.406;2023-03-03T09:07:58;7.45;;;5.55;;
25731;SDS011;13585;50.864;4.406;2023-03-03T09:10:25;7.70;;;5.57;;
25731;SDS011;13585;50.864;4.406;2023-03-03T09:12:55;8.18;;;5.53;;
25731;SDS011;13585;50.864;4.406;2023-03-03T09:15:27;9.27;;;6.10;;
25731;SDS011;13585;50.864;4.406;2023-03-03T09:17:57;7.20;;;5.57;;
25731;SDS011;13585;50.864;4.406;2023-03-03T09:20:44;7.85;;;5.50;;
25731;SDS011;13585;50.864;4.406;2023-03-03T09:23:23;7.60;;;5.85;;
25731;SDS011;13585;50.864;4.406;2023-03-03T09:25:50;7.38;;;5.97;;
25731;SDS011;13585;50.864;4.406;2023-03-03T09:30:48;8.13;;;5.78;;
25731;SDS011;13585;50.864;4.406;2023-03-03T09:33:21;6.93;;;5.25;;
25731;SDS011;13585;50.864;4.406;2023-03-03T09:35:49;8.25;;;6.18;;
25731;SDS011;13585;50.864;4.406;2023-03-03T09:38:21;8.50;;;5.93;;
25731;SDS011;13585;50.864;4.406;2023-03-03T09:49:31;7.90;;;5.30;;
25731;SDS011;13585;50.864;4.406;2023-03-03T09:57:13;7.83;;;5.47;;
25731;SDS011;13585;50.864;4.406;2023-03-03T10:10:43;6.80;;;5.22;;
25731;SDS011;13585;50.864;4.406;2023-03-03T10:19:00;8.57;;;5.63;;
25731;SDS011;13585;50.864;4.406;2023-03-03T10:21:43;9.20;;;5.70;;
25731;SDS011;13585;50.864;4.406;2023-03-03T10:24:29;8.02;;;5.60;;
25731;SDS011;13585;50.864;4.406;2023-03-03T10:27:06;9.00;;;5.93;;
25731;SDS011;13585;50.864;4.406;2023-03-03T10:33:04;7.40;;;5.78;;
25731;SDS011;13585;50.864;4.406;2023-03-03T10:35:44;7.22;;;5.22;;
25731;SDS011;13585;50.864;4.406;2023-03-03T10:38:47;7.30;;;5.32;;
25731;SDS011;13585;50.864;4.406;2023-03-03T10:49:51;7.57;;;5.20;;
25731;SDS011;13585;50.864;4.406;2023-03-03T10:52:38;6.57;;;4.78;;
25731;SDS011;13585;50.864;4.406;2023-03-03T11:03:12;9.35;;;5.95;;
25731;SDS011;13585;50.864;4.406;2023-03-03T11:05:50;8.57;;;5.82;;
25731;SDS011;13585;50.864;4.406;2023-03-03T11:13:54;7.68;;;5.38;;
25731;SDS011;13585;50.864;4.406;2023-03-03T11:21:40;6.85;;;5.15;;
25731;SDS011;13585;50.864;4.406;2023-03-03T11:29:38;7.93;;;5.63;;
25731;SDS011;13585;50.864;4.406;2023-03-03T11:32:35;7.35;;;5.47;;
25731;SDS011;13585;50.864;4.406;2023-03-03T11:37:58;6.75;;;5.18;;
25731;SDS011;13585;50.864;4.406;2023-03-03T11:53:01;7.72;;;5.07;;
25731;SDS011;13585;50.864;4.406;2023-03-03T11:55:59;6.50;;;4.97;;
25731;SDS011;13585;50.864;4.406;2023-03-03T11:59:01;8.20;;;5.57;;
25731;SDS011;13585;50.864;4.406;2023-03-03T12:04:14;14.65;;;8.95;;
25731;SDS011;13585;50.864;4.406;2023-03-03T12:07:06;14.85;;;8.63;;
25731;SDS011;13585;50.864;4.406;2023-03-03T12:10:07;14.95;;;8.50;;
25731;SDS011;13585;50.864;4.406;2023-03-03T12:21:09;8.95;;;6.03;;
25731;SDS011;13585;50.864;4.406;2023-03-03T12:23:51;11.23;;;6.32;;
25731;SDS011;13585;50.864;4.406;2023-03-03T12:35:19;8.43;;;5.50;;
25731;SDS011;13585;50.864;4.406;2023-03-03T12:41:12;10.27;;;5.43;;
25731;SDS011;13585;50.864;4.406;2023-03-03T12:44:07;9.25;;;5.50;;
25731;SDS011;13585;50.864;4.406;2023-03-03T12:46:55;7.60;;;5.53;;
25731;SDS011;13585;50.864;4.406;2023-03-03T12:52:30;8.80;;;5.68;;
25731;SDS011;13585;50.864;4.406;2023-03-03T13:07:13;7.38;;;5.47;;
25731;SDS011;13585;50.864;4.406;2023-03-03T13:12:46;7.22;;;5.10;;
25731;SDS011;13585;50.864;4.406;2023-03-03T13:15:29;8.50;;;5.35;;
25731;SDS011;13585;50.864;4.406;2023-03-03T13:18:08;12.20;;;5.65;;
25731;SDS011;13585;50.864;4.406;2023-03-03T13:21:14;7.47;;;5.07;;
25731;SDS011;13585;50.864;4.406;2023-03-03T13:26:27;7.68;;;5.03;;
25731;SDS011;13585;50.864;4.406;2023-03-03T13:31:30;8.77;;;5.55;;
25731;SDS011;13585;50.864;4.406;2023-03-03T13:33:59;7.85;;;5.30;;
25731;SDS011;13585;50.864;4.406;2023-03-03T13:36:42;8.63;;;4.55;;
25731;SDS011;13585;50.864;4.406;2023-03-03T13:39:19;7.50;;;5.00;;
25731;SDS011;13585;50.864;4.406;2023-03-03T13:42:15;7.18;;;4.93;;
25731;SDS011;13585;50.864;4.406;2023-03-03T13:47:55;7.80;;;4.60;;
25731;SDS011;13585;50.864;4.406;2023-03-03T13:50:38;7.22;;;5.13;;
25731;SDS011;13585;50.864;4.406;2023-03-03T13:59:19;8.15;;;4.68;;
25731;SDS011;13585;50.864;4.406;2023-03-03T14:02:16;7.13;;;4.60;;
25731;SDS011;13585;50.864;4.406;2023-03-03T14:12:39;8.90;;;4.45;;
25731;SDS011;13585;50.864;4.406;2023-03-03T14:15:24;9.02;;;4.85;;
25731;SDS011;13585;50.864;4.406;2023-03-03T14:27:25;7.40;;;4.57;;
25731;SDS011;13585;50.864;4.406;2023-03-03T14:29:57;6.07;;;4.05;;
25731;SDS011;13585;50.864;4.406;2023-03-03T14:32:24;6.70;;;4.75;;
25731;SDS011;13585;50.864;4.406;2023-03-03T14:34:58;7.25;;;4.40;;
25731;SDS011;13585;50.864;4.406;2023-03-03T14:37:43;6.80;;;4.38;;
25731;SDS011;13585;50.864;4.406;2023-03-03T14:40:22;5.90;;;3.92;;
25731;SDS011;13585;50.864;4.406;2023-03-03T14:42:56;8.48;;;4.20;;
25731;SDS011;13585;50.864;4.406;2023-03-03T14:48:00;6.57;;;4.15;;
25731;SDS011;13585;50.864;4.406;2023-03-03T14:50:57;5.85;;;3.83;;
25731;SDS011;13585;50.864;4.406;2023-03-03T14:53:41;5.93;;;3.92;;
25731;SDS011;13585;50.864;4.406;2023-03-03T14:56:27;5.45;;;4.07;;
25731;SDS011;13585;50.864;4.406;2023-03-03T15:04:40;7.43;;;4.00;;
25731;SDS011;13585;50.864;4.406;2023-03-03T15:07:19;6.65;;;3.80;;
25731;SDS011;13585;50.864;4.406;2023-03-03T15:10:00;6.25;;;3.70;;
25731;SDS011;13585;50.864;4.406;2023-03-03T15:12:33;5.90;;;3.70;;
25731;SDS011;13585;50.864;4.406;2023-03-03T15:17:36;6.90;;;4.03;;
25731;SDS011;13585;50.864;4.406;2023-03-03T15:26:08;7.20;;;3.92;;
25731;SDS011;13585;50.864;4.406;2023-03-03T15:45:46;6.68;;;3.65;;
25731;SDS011;13585;50.864;4.406;2023-03-03T15:51:04;7.13;;;4.38;;
25731;SDS011;13585;50.864;4.406;2023-03-03T15:56:19;5.53;;;3.17;;
25731;SDS011;13585;50.864;4.406;2023-03-03T16:01:33;4.97;;;3.47;;
25731;SDS011;13585;50.864;4.406;2023-03-03T16:04:17;6.15;;;3.63;;
25731;SDS011;13585;50.864;4.406;2023-03-03T16:09:39;7.15;;;3.15;;
25731;SDS011;13585;50.864;4.406;2023-03-03T16:18:01;6.38;;;3.22;;
25731;SDS011;13585;50.864;4.406;2023-03-03T16:23:51;5.40;;;3.22;;
25731;SDS011;13585;50.864;4.406;2023-03-03T16:26:32;6.15;;;3.28;;
25731;SDS011;13585;50.864;4.406;2023-03-03T16:32:15;5.38;;;3.00;;
25731;SDS011;13585;50.864;4.406;2023-03-03T16:34:54;3.22;;;2.90;;
25731;SDS011;13585;50.864;4.406;2023-03-03T16:37:34;3.70;;;3.08;;
25731;SDS011;13585;50.864;4.406;2023-03-03T16:42:38;6.40;;;2.97;;
25731;SDS011;13585;50.864;4.406;2023-03-03T16:50:29;4.68;;;2.78;;
25731;SDS011;13585;50.864;4.406;2023-03-03T16:56:07;4.28;;;2.60;;
25731;SDS011;13585;50.864;4.406;2023-03-03T17:04:00;3.90;;;2.92;;
25731;SDS011;13585;50.864;4.406;2023-03-03T17:06:36;3.50;;;2.78;;
25731;SDS011;13585;50.864;4.406;2023-03-03T17:15:03;4.18;;;2.67;;
25731;SDS011;13585;50.864;4.406;2023-03-03T17:17:49;4.72;;;2.85;;
25731;SDS011;13585;50.864;4.406;2023-03-03T17:22:47;3.17;;;2.40;;
25731;SDS011;13585;50.864;4.406;2023-03-03T17:25:21;7.55;;;2.47;;
25731;SDS011;13585;50.864;4.406;2023-03-03T17:31:07;4.28;;;2.50;;
25731;SDS011;13585;50.864;4.406;2023-03-03T17:36:41;5.32;;;2.58;;
25731;SDS011;13585;50.864;4.406;2023-03-03T17:55:55;6.28;;;2.95;;
25731;SDS011;13585;50.864;4.406;2023-03-03T17:58:46;5.03;;;2.80;;
25731;SDS011;13585;50.864;4.406;2023-03-03T18:09:37;6.38;;;2.42;;
25731;SDS011;13585;50.864;4.406;2023-03-03T18:14:37;5.43;;;2.95;;
25731;SDS011;13585;50.864;4.406;2023-03-03T18:22:45;5.60;;;3.17;;
25731;SDS011;13585;50.864;4.406;2023-03-03T18:25:16;6.90;;;3.28;;
25731;SDS011;13585;50.864;4.406;2023-03-03T18:27:45;4.88;;;3.35;;
25731;SDS011;13585;50.864;4.406;2023-03-03T18:38:59;3.30;;;2.63;;
25731;SDS011;13585;50.864;4.406;2023-03-03T18:41:27;6.32;;;2.83;;
25731;SDS011;13585;50.864;4.406;2023-03-03T18:49:07;4.28;;;2.80;;
25731;SDS011;13585;50.864;4.406;2023-03-03T19:04:38;6.18;;;2.72;;
25731;SDS011;13585;50.864;4.406;2023-03-03T19:07:12;6.63;;;2.95;;
25731;SDS011;13585;50.864;4.406;2023-03-03T19:10:01;4.22;;;2.58;;
25731;SDS011;13585;50.864;4.406;2023-03-03T19:15:45;4.80;;;2.47;;
25731;SDS011;13585;50.864;4.406;2023-03-03T19:18:24;5.17;;;2.97;;
25731;SDS011;13585;50.864;4.406;2023-03-03T19:21:05;5.13;;;2.40;;
25731;SDS011;13585;50.864;4.406;2023-03-03T19:23:58;6.75;;;2.63;;
25731;SDS011;13585;50.864;4.406;2023-03-03T19:26:45;4.35;;;2.60;;
25731;SDS011;13585;50.864;4.406;2023-03-03T19:37:51;4.35;;;2.60;;
25731;SDS011;13585;50.864;4.406;2023-03-03T19:41:02;3.72;;;2.45;;
25731;SDS011;13585;50.864;4.406;2023-03-03T19:55:53;4.22;;;2.35;;
25731;SDS011;13585;50.864;4.406;2023-03-03T19:58:45;5.45;;;2.60;;
25731;SDS011;13585;50.864;4.406;2023-03-03T20:01:24;3.47;;;2.05;;
25731;SDS011;13585;50.864;4.406;2023-03-03T20:04:15;4.85;;;2.70;;
25731;SDS011;13585;50.864;4.406;2023-03-03T20:15:28;2.83;;;2.08;;
25731;SDS011;13585;50.864;4.406;2023-03-03T20:18:22;5.60;;;2.22;;
25731;SDS011;13585;50.864;4.406;2023-03-03T20:21:15;3.78;;;2.22;;
25731;SDS011;13585;50.864;4.406;2023-03-03T20:35:04;5.68;;;2.22;;
25731;SDS011;13585;50.864;4.406;2023-03-03T20:37:55;4.05;;;2.65;;
25731;SDS011;13585;50.864;4.406;2023-03-03T20:49:10;4.00;;;2.33;;
25731;SDS011;13585;50.864;4.406;2023-03-03T20:57:33;5.55;;;2.42;;
25731;SDS011;13585;50.864;4.406;2023-03-03T21:06:16;3.80;;;2.50;;
25731;SDS011;13585;50.864;4.406;2023-03-03T21:08:51;3.08;;;2.38;;
25731;SDS011;13585;50.864;4.406;2023-03-03T21:11:22;3.30;;;2.20;;
25731;SDS011;13585;50.864;4.406;2023-03-03T21:13:49;2.85;;;2.33;;
25731;SDS011;13585;50.864;4.406;2023-03-03T21:19:00;4.28;;;2.25;;
25731;SDS011;13585;50.864;4.406;2023-03-03T21:21:29;4.65;;;2.22;;
25731;SDS011;13585;50.864;4.406;2023-03-03T21:23:59;3.65;;;2.60;;
25731;SDS011;13585;50.864;4.406;2023-03-03T21:29:29;3.70;;;2.30;;
25731;SDS011;13585;50.864;4.406;2023-03-03T21:32:00;4.53;;;2.85;;
25731;SDS011;13585;50.864;4.406;2023-03-03T21:34:39;3.45;;;2.30;;
25731;SDS011;13585;50.864;4.406;2023-03-03T21:37:07;3.42;;;2.22;;
25731;SDS011;13585;50.864;4.406;2023-03-03T21:39:38;4.47;;;2.50;;
25731;SDS011;13585;50.864;4.406;2023-03-03T21:44:42;3.45;;;2.30;;
25731;SDS011;13585;50.864;4.406;2023-03-03T21:47:15;4.70;;;2.47;;
25731;SDS011;13585;50.864;4.406;2023-03-03T21:49:46;4.53;;;2.80;;
25731;SDS011;13585;50.864;4.406;2023-03-03T21:52:22;5.88;;;2.30;;
25731;SDS011;13585;50.864;4.406;2023-03-03T21:54:48;4.65;;;2.50;;
25731;SDS011;13585;50.864;4.406;2023-03-03T21:57:15;3.90;;;2.55;;
25731;SDS011;13585;50.864;4.406;2023-03-03T21:59:41;2.70;;;1.90;;
25731;SDS011;13585;50.864;4.406;2023-03-03T22:02:07;2.47;;;1.98;;
25731;SDS011;13585;50.864;4.406;2023-03-03T22:04:33;3.38;;;2.40;;
25731;SDS011;13585;50.864;4.406;2023-03-03T22:06:59;4.50;;;2.45;;
25731;SDS011;13585;50.864;4.406;2023-03-03T22:09:25;4.80;;;2.63;;
25731;SDS011;13585;50.864;4.406;2023-03-03T22:11:51;5.90;;;2.80;;
25731;SDS011;13585;50.864;4.406;2023-03-03T22:14:16;4.22;;;2.75;;
25731;SDS011;13585;50.864;4.406;2023-03-03T22:16:42;4.47;;;2.63;;